Aviation Digital Data Service (ADDS)

Output produced by METARs form (0339 UTC 26 April 2019)
found at http://www.aviationweather.gov/metar/data/
 
Forecast for: RJOK (KOCHI AIRPORT , JP)
Text: TAF RJOK 252318Z 2600/2706 27007KT 9999 FEW020 SCT040
Forecast period: 0000 to 1200 UTC 26 April 2019
Forecast type: FROM: standard forecast or significant change
Winds: from the W (270 degrees) at 8 MPH (7 knots; 3.6 m/s)
Visibility: 6 or more miles 10+ km)
Ceiling: at least 12,000 feet AGL
Clouds: few clouds at 2000 feet AGL
scattered clouds at 4000 feet AGL
Weather: no significant weather forecast for this period
Text: BECMG 2612/2615 35014KT
Forecast period: 1200 UTC 26 April 2019 to 0600 UTC 27 April 2019
Forecast type: BECOMING: Conditions expected to become as follows by 1500 UTC 26 April 2019
Winds: from the N (350 degrees) at 16 MPH (14 knots; 7.2 m/s)
Visibility: 6 or more miles 10+ km)
Ceiling: at least 12,000 feet AGL
Clouds: few clouds at 2000 feet AGL
scattered clouds at 4000 feet AGL
Weather: no significant weather forecast for this period
Text: TEMPO 2700/2706 35020G30KT
Forecast period: 0000 to 0600 UTC 27 April 2019
Forecast type: TEMPORARY: The following changes expected for less than half the time period
Winds: from the N (350 degrees) at 23 MPH (20 knots; 10.3 m/s)
gusting to 34 MPH (30 knots; 15.4 m/s)
Visibility: missing
Ceiling: unknown
Clouds: missing
Weather: no significant weather forecast for this period